createdAt,value
2023-06-24T00:00:41.628Z,90.925
2023-06-24T00:02:41.879Z,91.274
2023-06-24T00:03:41.791Z,91.683
2023-06-24T00:04:41.402Z,91.463
2023-06-24T00:05:44.545Z,91.646
2023-06-24T00:06:41.460Z,91.343
2023-06-24T00:07:40.916Z,91.210
2023-06-24T00:08:41.324Z,91.282
2023-06-24T00:09:41.859Z,91.499
2023-06-24T00:10:41.860Z,91.374
2023-06-24T00:11:41.357Z,91.454
2023-06-24T00:12:41.787Z,91.417
2023-06-24T00:13:41.196Z,91.694
2023-06-24T00:14:41.624Z,92.024
2023-06-24T00:17:41.409Z,91.827
2023-06-24T00:18:41.012Z,92.157
2023-06-24T00:19:41.423Z,92.108
2023-06-24T00:20:41.954Z,92.217
2023-06-24T00:21:41.707Z,92.249
2023-06-24T00:24:40.885Z,92.627
2023-06-24T00:25:41.317Z,92.526
2023-06-24T00:26:41.663Z,92.667
2023-06-24T00:27:41.037Z,92.899
2023-06-24T00:28:41.478Z,93.134
2023-06-24T00:29:40.906Z,93.464
2023-06-24T00:30:41.667Z,93.470
2023-06-24T00:31:41.339Z,93.821
2023-06-24T00:32:41.269Z,93.559
2023-06-24T00:33:41.722Z,93.664
2023-06-24T00:34:41.256Z,93.847
2023-06-24T00:35:40.811Z,93.512
2023-06-24T00:36:41.225Z,93.844
2023-06-24T00:37:41.706Z,93.619
2023-06-24T00:38:41.098Z,93.777
2023-06-24T00:39:41.528Z,93.893
2023-06-24T00:40:41.234Z,93.790
2023-06-24T00:41:41.646Z,93.786
2023-06-24T00:42:41.022Z,93.767
2023-06-24T00:43:41.402Z,94.034
2023-06-24T00:44:41.789Z,94.050
2023-06-24T00:45:41.617Z,93.859
2023-06-24T00:46:41.369Z,93.866
2023-06-24T00:47:45.331Z,93.859
2023-06-24T00:48:40.841Z,93.666
2023-06-24T00:49:41.280Z,94.111
2023-06-24T00:50:41.691Z,94.170
2023-06-24T00:51:41.221Z,94.271
2023-06-24T00:52:41.608Z,94.370
2023-06-24T00:53:40.993Z,94.126
2023-06-24T00:54:41.348Z,94.124
2023-06-24T00:55:42.788Z,93.830
2023-06-24T00:56:41.185Z,93.718
2023-06-24T00:57:41.783Z,93.653
2023-06-24T00:58:41.169Z,93.548
2023-06-24T00:59:41.282Z,93.514
2023-06-24T01:00:41.756Z,93.743
2023-06-24T01:01:41.321Z,93.836
2023-06-24T01:02:40.997Z,93.771
2023-06-24T01:03:42.036Z,93.794
2023-06-24T01:04:41.678Z,93.853
2023-06-24T01:05:42.106Z,94.196
2023-06-24T01:06:41.598Z,94.137
2023-06-24T01:07:41.092Z,94.134
2023-06-24T01:08:41.485Z,94.221
2023-06-24T01:09:40.907Z,94.093
2023-06-24T01:10:41.352Z,93.912
2023-06-24T01:11:40.845Z,94.130
2023-06-24T01:12:41.441Z,94.145
2023-06-24T01:13:40.855Z,94.095
2023-06-24T01:14:41.201Z,94.040
2023-06-24T01:15:42.565Z,93.899
2023-06-24T01:16:40.935Z,94.051
2023-06-24T01:17:41.548Z,94.206
2023-06-24T01:18:41.128Z,94.357
2023-06-24T01:19:41.588Z,94.422
2023-06-24T01:20:40.986Z,94.423
2023-06-24T01:21:41.672Z,94.593
2023-06-24T01:22:41.102Z,94.635
2023-06-24T01:23:41.523Z,94.837
2023-06-24T01:24:40.936Z,94.753
2023-06-24T01:25:42.314Z,94.948
2023-06-24T01:26:41.678Z,94.849
2023-06-24T01:27:41.273Z,95.062
2023-06-24T01:28:41.655Z,95.183
2023-06-24T01:31:41.616Z,95.017
2023-06-24T01:32:41.705Z,95.022
2023-06-24T01:33:42.255Z,94.889
2023-06-24T01:34:41.519Z,94.935
2023-06-24T01:35:41.543Z,94.898
2023-06-24T01:36:40.945Z,95.041
2023-06-24T01:37:41.338Z,94.834
2023-06-24T01:38:41.751Z,95.015
2023-06-24T01:39:41.131Z,95.104
2023-06-24T01:40:41.678Z,95.230
2023-06-24T01:41:41.073Z,95.205
2023-06-24T01:42:41.491Z,95.198
2023-06-24T01:43:40.956Z,95.089
2023-06-24T01:44:41.432Z,95.118
2023-06-24T01:45:41.307Z,95.137
2023-06-24T01:46:41.763Z,95.158
2023-06-24T01:47:41.387Z,95.247
2023-06-24T01:48:40.840Z,95.282
2023-06-24T01:49:41.192Z,95.295
2023-06-24T01:50:42.410Z,95.253
2023-06-24T01:51:41.793Z,95.234
2023-06-24T01:53:41.757Z,95.146
2023-06-24T01:55:42.283Z,95.415
2023-06-24T01:56:41.731Z,95.392
2023-06-24T01:57:41.095Z,95.423
2023-06-24T01:58:41.480Z,95.360
2023-06-24T01:59:40.999Z,95.261
2023-06-24T02:00:41.616Z,95.337
2023-06-24T02:01:41.075Z,95.476
2023-06-24T02:02:41.880Z,95.761
2023-06-24T02:03:41.873Z,95.793
2023-06-24T02:04:41.374Z,95.864
2023-06-24T02:05:42.465Z,95.867
2023-06-24T02:06:41.256Z,95.848
2023-06-24T02:07:41.733Z,95.854
2023-06-24T02:08:41.066Z,95.743
2023-06-24T02:09:41.501Z,95.949
2023-06-24T02:10:41.147Z,96.075
2023-06-24T02:11:41.607Z,96.033
2023-06-24T02:12:40.929Z,96.092
2023-06-24T02:13:41.438Z,96.083
2023-06-24T02:14:40.830Z,96.075
2023-06-24T02:15:41.445Z,96.113
2023-06-24T02:16:41.182Z,96.049
2023-06-24T02:17:41.834Z,96.075
2023-06-24T02:19:40.920Z,95.961
2023-06-24T02:20:41.338Z,95.965
2023-06-24T02:21:41.807Z,96.024
2023-06-24T02:22:41.238Z,95.871
2023-06-24T02:23:41.688Z,95.917
2023-06-24T02:24:41.272Z,95.768
2023-06-24T02:25:42.188Z,95.871
2023-06-24T02:26:41.604Z,95.770
2023-06-24T02:27:41.014Z,95.869
2023-06-24T02:28:41.391Z,95.766
2023-06-24T02:29:41.772Z,95.747
2023-06-24T02:30:41.382Z,95.871
2023-06-24T02:31:41.038Z,95.822
2023-06-24T02:32:41.700Z,95.905
2023-06-24T02:33:41.403Z,95.894
2023-06-24T02:35:41.968Z,96.029
2023-06-24T02:36:41.374Z,96.037
2023-06-24T02:37:41.770Z,95.972
2023-06-24T02:38:41.222Z,96.003
2023-06-24T02:39:41.655Z,95.995
2023-06-24T02:41:41.677Z,96.026
2023-06-24T02:42:41.140Z,95.947
2023-06-24T02:43:41.929Z,95.987
2023-06-24T02:45:40.948Z,95.877
2023-06-24T02:46:41.850Z,95.747
2023-06-24T02:47:41.540Z,95.928
2023-06-24T02:48:41.247Z,96.039
2023-06-24T02:49:41.668Z,96.096
2023-06-24T02:50:41.182Z,95.946
2023-06-24T02:51:41.710Z,95.894
2023-06-24T02:52:41.184Z,96.110
2023-06-24T02:53:41.608Z,95.951
2023-06-24T02:54:41.040Z,96.071
2023-06-24T02:55:41.953Z,96.111
2023-06-24T02:56:41.381Z,96.155
2023-06-24T02:57:41.842Z,96.193
2023-06-24T02:58:41.248Z,96.281
2023-06-24T02:59:41.641Z,96.369
2023-06-24T03:00:41.184Z,96.543
2023-06-24T03:01:41.806Z,96.419
2023-06-24T03:02:41.712Z,96.344
2023-06-24T03:04:41.190Z,96.714
2023-06-24T03:05:42.723Z,96.638
2023-06-24T03:06:41.199Z,96.676
2023-06-24T03:07:41.656Z,96.661
2023-06-24T03:08:41.044Z,96.762
2023-06-24T03:09:41.421Z,96.710
2023-06-24T03:10:40.934Z,96.668
2023-06-24T03:11:41.320Z,96.621
2023-06-24T03:12:41.778Z,96.749
2023-06-24T03:13:41.148Z,96.596
2023-06-24T03:14:41.519Z,96.617
2023-06-24T03:15:41.284Z,96.653
2023-06-24T03:16:41.783Z,96.686
2023-06-24T03:17:41.387Z,96.644
2023-06-24T03:18:41.161Z,96.546
2023-06-24T03:19:41.596Z,96.365
2023-06-24T03:20:41.004Z,96.239
2023-06-24T03:21:41.399Z,96.239
2023-06-24T03:22:41.805Z,96.089
2023-06-24T03:23:41.179Z,96.064
2023-06-24T03:24:41.652Z,96.028
2023-06-24T03:25:41.404Z,96.005
2023-06-24T03:26:40.837Z,96.003
2023-06-24T03:27:41.226Z,96.026
2023-06-24T03:28:41.673Z,96.001
2023-06-24T03:29:41.098Z,95.959
2023-06-24T03:30:41.520Z,95.942
2023-06-24T03:31:41.025Z,95.989
2023-06-24T03:32:41.792Z,96.018
2023-06-24T03:34:41.040Z,96.129
2023-06-24T03:35:41.921Z,96.138
2023-06-24T03:36:41.367Z,96.136
2023-06-24T03:37:41.821Z,95.955
2023-06-24T03:38:41.192Z,95.804
2023-06-24T03:39:41.586Z,95.682
2023-06-24T03:40:40.963Z,95.537
2023-06-24T03:41:41.624Z,95.572
2023-06-24T03:42:41.057Z,95.324
2023-06-24T03:43:41.543Z,95.137
2023-06-24T03:44:40.969Z,94.898
2023-06-24T03:45:42.343Z,94.902
2023-06-24T03:46:40.905Z,94.893
2023-06-24T03:47:41.585Z,94.889
2023-06-24T03:48:41.207Z,94.780
2023-06-24T03:49:41.625Z,94.620
2023-06-24T03:50:41.032Z,94.433
2023-06-24T03:51:41.759Z,94.261
2023-06-24T03:52:41.178Z,94.061
2023-06-24T03:53:41.688Z,93.865
2023-06-24T03:54:41.015Z,93.832
2023-06-24T03:55:41.863Z,93.882
2023-06-24T03:56:41.245Z,93.563
2023-06-24T03:57:41.780Z,93.447
2023-06-24T03:58:41.220Z,93.378
2023-06-24T03:59:41.559Z,93.037
2023-06-24T04:01:41.594Z,92.816
2023-06-24T04:02:41.363Z,92.646
2023-06-24T04:03:41.037Z,92.604
2023-06-24T04:04:41.683Z,92.253
2023-06-24T04:05:41.461Z,91.950
2023-06-24T04:09:40.928Z,90.906
2023-06-24T04:10:41.437Z,90.345
2023-06-24T04:11:42.211Z,90.094
2023-06-24T04:12:41.592Z,89.533
2023-06-24T04:13:40.898Z,88.989
2023-06-24T04:14:41.367Z,88.797
2023-06-24T04:15:42.009Z,88.659
2023-06-24T04:16:41.422Z,88.598
2023-06-24T04:18:41.625Z,88.408
2023-06-24T04:19:41.007Z,88.217
2023-06-24T04:20:43.803Z,88.209
2023-06-24T04:21:41.291Z,87.297
2023-06-24T04:22:41.772Z,87.088
2023-06-24T04:23:41.193Z,87.359
2023-06-24T04:24:41.585Z,87.070
2023-06-24T04:25:41.100Z,86.985
2023-06-24T04:26:41.644Z,86.367
2023-06-24T04:27:41.127Z,86.304
2023-06-24T04:28:41.516Z,86.332
2023-06-24T04:29:40.880Z,85.863
2023-06-24T04:30:41.275Z,85.726
2023-06-24T04:31:42.085Z,85.007
2023-06-24T04:32:41.752Z,84.295
2023-06-24T04:35:41.796Z,83.584
2023-06-24T04:36:41.165Z,84.112
2023-06-24T04:37:41.545Z,83.343
2023-06-24T04:38:41.219Z,83.824
2023-06-24T04:39:41.596Z,83.750
2023-06-24T04:40:41.316Z,83.750
2023-06-24T04:41:41.702Z,83.317
2023-06-24T04:42:41.177Z,84.032
2023-06-24T04:43:41.643Z,81.713
2023-06-24T04:46:41.143Z,81.583
2023-06-24T04:47:42.069Z,82.857
2023-06-24T04:48:41.648Z,82.649
2023-06-24T04:49:41.127Z,81.711
2023-06-24T04:50:42.317Z,82.008
2023-06-24T04:51:40.952Z,81.888
2023-06-24T04:52:41.388Z,82.331
2023-06-24T04:53:41.813Z,82.876
2023-06-24T04:54:41.241Z,82.478
2023-06-24T04:55:42.380Z,81.133
2023-06-24T04:56:41.902Z,82.415
2023-06-24T04:57:41.167Z,81.619
2023-06-24T04:58:41.587Z,81.108
2023-06-24T04:59:40.924Z,79.964
2023-06-24T05:00:41.874Z,80.093
2023-06-24T05:01:41.637Z,80.933
2023-06-24T05:02:41.316Z,80.561
2023-06-24T05:03:42.050Z,80.820
2023-06-24T05:04:41.501Z,80.034
2023-06-24T05:05:46.490Z,80.770
2023-06-24T05:06:41.059Z,80.959
2023-06-24T05:07:41.147Z,78.638
2023-06-24T05:08:41.671Z,79.365
2023-06-24T05:10:41.458Z,80.332
2023-06-24T05:11:41.849Z,79.513
2023-06-24T05:12:41.265Z,77.661
2023-06-24T05:13:41.655Z,78.106
2023-06-24T05:14:41.197Z,77.789
2023-06-24T05:15:41.224Z,77.669
2023-06-24T05:16:41.601Z,77.072
2023-06-24T05:17:41.177Z,78.047
2023-06-24T05:18:41.823Z,77.278
2023-06-24T05:21:41.181Z,77.093
2023-06-24T05:22:41.687Z,76.124
2023-06-24T05:23:41.057Z,76.433
2023-06-24T05:24:44.553Z,74.270
2023-06-24T05:25:44.414Z,70.438
2023-06-24T05:26:43.844Z,69.641
2023-06-24T05:27:44.232Z,71.026
2023-06-24T05:28:44.644Z,68.027
2023-06-24T05:29:44.137Z,68.565
2023-06-24T05:30:44.644Z,71.270
2023-06-24T05:31:44.030Z,67.817
2023-06-24T05:32:44.739Z,66.616
2023-06-24T05:33:44.331Z,67.354
2023-06-24T05:34:44.819Z,67.631
2023-06-24T05:35:44.516Z,66.145
2023-06-24T05:36:40.899Z,68.086
2023-06-24T05:37:41.356Z,70.453
2023-06-24T05:38:41.771Z,65.920
2023-06-24T05:39:41.176Z,69.607
2023-06-24T05:40:41.605Z,71.377
2023-06-24T05:41:41.024Z,70.917
2023-06-24T05:42:41.514Z,68.565
2023-06-24T05:43:42.990Z,64.588
2023-06-24T05:46:41.802Z,67.901
2023-06-24T05:47:41.305Z,65.612
2023-06-24T05:48:41.815Z,70.192
2023-06-24T05:49:41.191Z,69.111
2023-06-24T05:50:41.639Z,66.007
2023-06-24T05:51:41.056Z,69.649
2023-06-24T05:52:41.595Z,64.460
2023-06-24T05:53:40.957Z,70.720
2023-06-24T05:54:41.393Z,66.782
2023-06-24T05:56:43.536Z,68.435
2023-06-24T05:57:40.939Z,68.138
2023-06-24T05:58:41.400Z,66.871
2023-06-24T05:59:41.801Z,66.108
2023-06-24T06:00:41.183Z,67.615
2023-06-24T06:01:40.871Z,68.140
2023-06-24T06:02:42.109Z,62.067
2023-06-24T06:03:41.288Z,59.330
2023-06-24T06:04:40.818Z,61.445
2023-06-24T06:05:41.615Z,70.335
2023-06-24T06:06:41.030Z,68.647
2023-06-24T06:07:41.686Z,64.623
2023-06-24T06:08:41.213Z,62.582
2023-06-24T06:09:41.775Z,68.458
2023-06-24T06:10:41.260Z,58.818
2023-06-24T06:11:41.687Z,59.253
2023-06-24T06:12:41.180Z,66.454
2023-06-24T06:13:41.717Z,66.131
2023-06-24T06:14:41.057Z,60.901
2023-06-24T06:15:41.935Z,63.636
2023-06-24T06:16:41.334Z,63.448
2023-06-24T06:17:42.019Z,60.779
2023-06-24T06:19:41.023Z,59.854
2023-06-24T06:20:41.288Z,59.387
2023-06-24T06:21:41.654Z,61.935
2023-06-24T06:22:41.152Z,58.719
2023-06-24T06:23:41.559Z,62.429
2023-06-24T06:24:40.905Z,59.864
2023-06-24T06:25:41.422Z,62.662
2023-06-24T06:26:41.657Z,64.602
2023-06-24T06:27:41.238Z,60.417
2023-06-24T06:28:41.630Z,61.864
2023-06-24T06:29:41.279Z,61.195
2023-06-24T06:30:41.729Z,58.511
2023-06-24T06:31:41.496Z,62.164
2023-06-24T06:32:41.482Z,60.894
2023-06-24T06:35:41.941Z,61.981
2023-06-24T06:36:41.430Z,62.379
2023-06-24T06:37:41.842Z,60.012
2023-06-24T06:38:41.213Z,59.366
2023-06-24T06:39:41.634Z,58.164
2023-06-24T06:41:41.627Z,58.946
2023-06-24T06:42:41.377Z,60.032
2023-06-24T06:43:41.785Z,62.399
2023-06-24T06:44:41.572Z,61.361
2023-06-24T06:45:42.311Z,61.487
2023-06-24T06:47:41.924Z,60.987
2023-06-24T06:49:41.258Z,60.577
2023-06-24T06:50:41.621Z,58.530
2023-06-24T06:51:41.114Z,59.953
2023-06-24T06:52:41.532Z,60.106
2023-06-24T06:53:40.995Z,56.612
2023-06-24T06:54:41.411Z,59.499
2023-06-24T06:55:41.587Z,59.150
2023-06-24T06:56:41.024Z,61.254
2023-06-24T06:57:42.054Z,57.052
2023-06-24T06:59:41.203Z,58.387
2023-06-24T07:00:41.844Z,59.536
2023-06-24T07:01:41.536Z,57.157
2023-06-24T07:02:41.220Z,59.017
2023-06-24T07:03:42.099Z,58.040
2023-06-24T07:04:41.705Z,58.370
2023-06-24T07:05:43.278Z,59.446
2023-06-24T07:08:40.993Z,58.235
2023-06-24T07:09:41.674Z,56.842
2023-06-24T07:10:41.759Z,56.173
2023-06-24T07:11:41.812Z,56.573
2023-06-24T07:12:41.246Z,56.207
2023-06-24T07:14:41.340Z,53.457
2023-06-24T07:15:42.440Z,53.209
2023-06-24T07:16:40.867Z,56.814
2023-06-24T07:17:41.810Z,52.715
2023-06-24T07:18:41.491Z,52.967
2023-06-24T07:19:41.582Z,54.966
2023-06-24T07:20:45.036Z,54.872
2023-06-24T07:22:41.837Z,55.646
2023-06-24T07:23:41.236Z,55.788
2023-06-24T07:24:41.628Z,55.494
2023-06-24T07:25:41.582Z,56.596
2023-06-24T07:26:41.185Z,56.936
2023-06-24T07:27:41.596Z,57.462
2023-06-24T07:28:41.296Z,56.079
2023-06-24T07:29:41.410Z,55.410
2023-06-24T07:30:41.860Z,54.843
2023-06-24T07:31:41.717Z,53.854
2023-06-24T07:33:41.827Z,55.086
2023-06-24T07:34:41.240Z,53.472
2023-06-24T07:35:42.360Z,52.915
2023-06-24T07:37:41.209Z,53.764
2023-06-24T07:38:41.658Z,54.151
2023-06-24T07:39:41.435Z,53.255
2023-06-24T07:40:41.787Z,53.176
2023-06-24T07:41:41.171Z,54.077
2023-06-24T07:42:41.736Z,53.714
2023-06-24T07:43:41.840Z,54.035
2023-06-24T07:44:41.220Z,51.807
2023-06-24T07:45:42.485Z,53.045
2023-06-24T07:46:41.213Z,55.103
2023-06-24T07:47:41.962Z,53.293
2023-06-24T07:48:41.283Z,51.822
2023-06-24T07:49:41.672Z,55.055
2023-06-24T07:50:41.458Z,52.116
2023-06-24T07:53:41.777Z,52.356
2023-06-24T07:55:42.261Z,56.329
2023-06-24T07:57:41.041Z,53.819
2023-06-24T07:58:41.910Z,54.103
2023-06-24T07:59:41.387Z,55.900
2023-06-24T08:00:44.965Z,53.972
2023-06-24T08:03:41.908Z,55.559
2023-06-24T08:04:42.457Z,56.106
2023-06-24T08:05:42.150Z,55.795
2023-06-24T08:06:40.994Z,55.894
2023-06-24T08:07:41.538Z,55.227
2023-06-24T08:08:41.055Z,54.689
2023-06-24T08:09:41.569Z,55.017
2023-06-24T08:11:41.449Z,54.313
2023-06-24T08:12:40.852Z,53.911
2023-06-24T08:13:41.281Z,52.772
2023-06-24T08:14:41.779Z,52.335
2023-06-24T08:15:45.482Z,54.372
2023-06-24T08:16:40.930Z,51.773
2023-06-24T08:17:41.579Z,49.484
2023-06-24T08:18:41.201Z,50.842
2023-06-24T08:19:41.601Z,49.077
2023-06-24T08:20:41.019Z,50.666
2023-06-24T08:21:41.540Z,49.692
2023-06-24T08:22:40.901Z,50.300
2023-06-24T08:23:41.372Z,49.472
2023-06-24T08:24:41.757Z,50.195
2023-06-24T08:25:41.744Z,49.320
2023-06-24T08:27:41.611Z,49.592
2023-06-24T08:28:41.000Z,49.440
2023-06-24T08:29:41.436Z,46.733
2023-06-24T08:30:41.023Z,46.806
2023-06-24T08:31:41.613Z,46.029
2023-06-24T08:32:41.172Z,43.769
2023-06-24T08:33:41.817Z,44.898
2023-06-24T08:34:41.244Z,48.643
2023-06-24T08:35:42.368Z,45.986
2023-06-24T08:37:41.143Z,46.476
2023-06-24T08:38:41.576Z,46.481
2023-06-24T08:40:41.451Z,45.772
2023-06-24T08:42:41.045Z,46.028
2023-06-24T08:43:41.512Z,46.298
2023-06-24T08:44:40.905Z,46.810
2023-06-24T08:45:42.403Z,47.653
2023-06-24T08:47:41.964Z,47.861
2023-06-24T08:48:41.650Z,46.417
2023-06-24T08:49:41.772Z,45.970
2023-06-24T08:50:41.334Z,45.967
2023-06-24T08:51:41.852Z,45.875
2023-06-24T08:52:41.280Z,46.504
2023-06-24T08:54:41.100Z,46.161
2023-06-24T08:55:42.046Z,44.807
2023-06-24T08:56:41.461Z,45.076
2023-06-24T08:57:40.847Z,45.295
2023-06-24T08:58:41.336Z,43.546
2023-06-24T08:59:41.786Z,43.485
2023-06-24T09:00:41.194Z,44.820
2023-06-24T09:01:41.863Z,46.255
2023-06-24T09:02:42.136Z,46.085
2023-06-24T09:03:41.480Z,46.337
2023-06-24T09:05:42.349Z,44.351
2023-06-24T09:06:41.773Z,42.739
2023-06-24T09:07:41.303Z,39.853
2023-06-24T09:08:41.831Z,41.230
2023-06-24T09:09:41.224Z,40.475
2023-06-24T09:10:41.717Z,40.790
2023-06-24T09:11:41.139Z,42.112
2023-06-24T09:12:41.624Z,39.155
2023-06-24T09:13:41.017Z,39.367
2023-06-24T09:14:41.416Z,39.939
2023-06-24T09:15:42.497Z,39.998
2023-06-24T09:16:41.615Z,39.674
2023-06-24T09:17:41.090Z,40.439
2023-06-24T09:18:41.666Z,41.261
2023-06-24T09:19:41.144Z,41.509
2023-06-24T09:20:41.738Z,40.611
2023-06-24T09:21:41.095Z,42.741
2023-06-24T09:22:41.521Z,44.282
2023-06-24T09:23:40.942Z,42.753
2023-06-24T09:24:41.407Z,42.798
2023-06-24T09:25:41.907Z,41.087
2023-06-24T09:26:41.315Z,41.896
2023-06-24T09:27:41.902Z,42.901
2023-06-24T09:28:41.376Z,42.995
2023-06-24T09:29:41.762Z,41.744
2023-06-24T09:30:41.197Z,42.322
2023-06-24T09:31:41.798Z,40.023
2023-06-24T09:33:41.244Z,37.357
2023-06-24T09:34:41.907Z,38.963
2023-06-24T09:35:41.564Z,38.701
2023-06-24T09:36:40.941Z,41.204
2023-06-24T09:37:41.718Z,40.994
2023-06-24T09:38:41.170Z,41.555
2023-06-24T09:39:41.664Z,41.078
2023-06-24T09:40:41.183Z,42.377
2023-06-24T09:41:41.484Z,41.461
2023-06-24T09:42:40.836Z,40.571
2023-06-24T09:43:43.902Z,38.860
2023-06-24T09:44:41.391Z,38.352
2023-06-24T09:45:42.580Z,37.793
2023-06-24T09:46:41.173Z,39.081
2023-06-24T09:47:41.817Z,36.344
2023-06-24T09:48:41.398Z,36.451
2023-06-24T09:49:41.813Z,38.518
2023-06-24T09:50:41.176Z,38.947
2023-06-24T09:51:41.527Z,39.823
2023-06-24T09:52:40.939Z,39.178
2023-06-24T09:53:41.376Z,38.272
2023-06-24T09:54:44.200Z,36.933
2023-06-24T09:55:42.121Z,37.284
2023-06-24T09:56:41.580Z,38.070
2023-06-24T09:59:40.921Z,40.733
2023-06-24T10:00:41.656Z,39.937
2023-06-24T10:01:41.213Z,39.291
2023-06-24T10:02:41.632Z,39.939
2023-06-24T10:03:42.189Z,39.914
2023-06-24T10:04:41.115Z,38.451
2023-06-24T10:05:42.035Z,38.465
2023-06-24T10:06:41.528Z,37.675
2023-06-24T10:07:41.067Z,37.290
2023-06-24T10:08:41.481Z,38.100
2023-06-24T10:09:40.894Z,38.398
2023-06-24T10:10:41.756Z,39.819
2023-06-24T10:11:41.189Z,40.193
2023-06-24T10:12:41.611Z,39.842
2023-06-24T10:13:41.056Z,39.844
2023-06-24T10:14:42.225Z,39.405
2023-06-24T10:15:41.636Z,39.968
2023-06-24T10:18:41.968Z,41.513
2023-06-24T10:19:41.413Z,41.286
2023-06-24T10:20:41.264Z,41.755
2023-06-24T10:21:41.636Z,39.676
2023-06-24T10:23:41.444Z,36.760
2023-06-24T10:24:41.898Z,36.115
2023-06-24T10:25:41.298Z,34.682
2023-06-24T10:26:41.677Z,34.446
2023-06-24T10:27:43.341Z,34.772
2023-06-24T10:29:42.067Z,32.796
2023-06-24T10:31:41.463Z,33.841
2023-06-24T10:32:41.071Z,35.682
2023-06-24T10:33:41.661Z,34.711
2023-06-24T10:34:41.086Z,35.188
2023-06-24T10:35:41.523Z,34.656
2023-06-24T10:36:40.891Z,34.669
2023-06-24T10:37:41.289Z,35.352
2023-06-24T10:38:41.656Z,36.990
2023-06-24T10:39:41.014Z,36.132
2023-06-24T10:40:41.619Z,36.950
2023-06-24T10:41:41.160Z,39.003
2023-06-24T10:42:41.617Z,39.838
2023-06-24T10:43:41.199Z,40.675
2023-06-24T10:44:41.665Z,40.294
2023-06-24T10:45:41.119Z,39.411
2023-06-24T10:46:41.768Z,38.108
2023-06-24T10:47:41.400Z,37.080
2023-06-24T10:48:40.985Z,36.466
2023-06-24T10:49:41.371Z,35.283
2023-06-24T10:50:42.117Z,34.080
2023-06-24T10:51:41.500Z,33.601
2023-06-24T10:52:40.887Z,33.439
2023-06-24T10:53:41.362Z,33.687
2023-06-24T10:54:41.756Z,34.349
2023-06-24T10:55:41.167Z,34.120
2023-06-24T10:56:41.579Z,35.085
2023-06-24T10:57:41.089Z,35.123
2023-06-24T10:58:41.614Z,33.937
2023-06-24T10:59:40.972Z,34.278
2023-06-24T11:00:41.871Z,34.642
2023-06-24T11:01:41.953Z,34.826
2023-06-24T11:02:41.847Z,34.246
2023-06-24T11:04:41.061Z,33.557
2023-06-24T11:05:41.521Z,32.348
2023-06-24T11:06:41.018Z,32.148
2023-06-24T11:07:41.550Z,32.609
2023-06-24T11:08:40.992Z,33.204
2023-06-24T11:09:41.435Z,33.681
2023-06-24T11:10:42.325Z,34.103
2023-06-24T11:11:41.707Z,35.243
2023-06-24T11:12:41.102Z,35.796
2023-06-24T11:13:41.746Z,36.727
2023-06-24T11:14:41.155Z,37.767
2023-06-24T11:15:45.145Z,38.001
2023-06-24T11:16:41.520Z,37.141
2023-06-24T11:18:40.907Z,35.234
2023-06-24T11:19:41.323Z,36.054
2023-06-24T11:20:42.648Z,35.674
2023-06-24T11:21:40.988Z,33.799
2023-06-24T11:22:41.417Z,33.324
2023-06-24T11:23:41.002Z,33.212
2023-06-24T11:24:41.748Z,34.185
2023-06-24T11:25:41.149Z,33.773
2023-06-24T11:26:41.687Z,33.353
2023-06-24T11:27:41.064Z,34.305
2023-06-24T11:28:41.500Z,33.759
2023-06-24T11:29:40.890Z,32.375
2023-06-24T11:30:41.924Z,33.807
2023-06-24T11:32:40.990Z,35.297
2023-06-24T11:33:41.490Z,37.307
2023-06-24T11:34:41.012Z,37.673
2023-06-24T11:35:41.458Z,36.845
2023-06-24T11:36:40.886Z,36.546
2023-06-24T11:37:41.302Z,34.696
2023-06-24T11:38:41.778Z,34.728
2023-06-24T11:39:41.244Z,34.797
2023-06-24T11:40:42.264Z,34.246
2023-06-24T11:41:41.631Z,34.141
2023-06-24T11:44:41.176Z,34.806
2023-06-24T11:45:41.640Z,34.507
2023-06-24T11:46:41.173Z,33.267
2023-06-24T11:47:41.811Z,33.092
2023-06-24T11:48:41.315Z,33.334
2023-06-24T11:49:41.729Z,33.130
2023-06-24T11:50:41.463Z,33.096
2023-06-24T11:51:40.808Z,31.720
2023-06-24T11:52:41.180Z,32.842
2023-06-24T11:53:41.542Z,31.690
2023-06-24T11:54:40.888Z,31.568
2023-06-24T11:55:41.515Z,32.075
2023-06-24T11:56:40.933Z,32.869
2023-06-24T11:57:40.992Z,33.040
2023-06-24T11:58:41.367Z,32.552
2023-06-24T11:59:41.728Z,33.508
2023-06-24T12:00:42.145Z,35.526
2023-06-24T12:02:41.875Z,36.155
2023-06-24T12:03:42.177Z,36.166
2023-06-24T12:04:42.303Z,36.254
2023-06-24T12:05:40.997Z,37.654
2023-06-24T12:06:41.547Z,35.943
2023-06-24T12:07:41.144Z,36.670
2023-06-24T12:08:52.456Z,36.662
2023-06-24T12:10:43.039Z,35.434
2023-06-24T12:11:41.514Z,35.163
2023-06-24T12:15:41.282Z,33.950
2023-06-24T12:16:41.712Z,33.738
2023-06-24T12:17:41.141Z,35.068
2023-06-24T12:18:41.709Z,37.032
2023-06-24T12:19:41.179Z,36.693
2023-06-24T12:20:47.759Z,36.952
2023-06-24T12:23:40.942Z,36.618
2023-06-24T12:24:41.432Z,35.873
2023-06-24T12:25:41.899Z,36.117
2023-06-24T12:26:41.320Z,35.901
2023-06-24T12:27:41.750Z,35.733
2023-06-24T12:28:41.101Z,34.993
2023-06-24T12:29:41.593Z,34.700
2023-06-24T12:30:41.494Z,34.898
2023-06-24T12:33:41.713Z,36.338
2023-06-24T12:34:41.064Z,36.119
2023-06-24T12:35:41.488Z,36.044
2023-06-24T12:36:40.976Z,36.071
2023-06-24T12:37:41.404Z,36.166
2023-06-24T12:38:40.929Z,36.906
2023-06-24T12:39:41.334Z,37.868
2023-06-24T12:40:42.112Z,38.556
2023-06-24T12:41:41.461Z,37.996
2023-06-24T12:42:41.878Z,37.545
2023-06-24T12:43:41.320Z,35.957
2023-06-24T12:44:41.689Z,35.323
2023-06-24T12:45:41.146Z,34.166
2023-06-24T12:46:41.623Z,32.972
2023-06-24T12:47:41.250Z,33.462
2023-06-24T12:48:40.835Z,34.314
2023-06-24T12:49:41.261Z,34.078
2023-06-24T12:50:42.515Z,34.881
2023-06-24T12:51:41.056Z,34.639
2023-06-24T12:52:41.786Z,34.719
2023-06-24T12:53:41.161Z,35.751
2023-06-24T12:54:41.682Z,36.903
2023-06-24T12:55:41.133Z,37.153
2023-06-24T12:56:41.609Z,37.320
2023-06-24T12:57:41.088Z,38.442
2023-06-24T12:58:41.478Z,37.467
2023-06-24T12:59:40.872Z,38.669
2023-06-24T13:00:41.729Z,37.727
2023-06-24T13:01:41.339Z,36.233
2023-06-24T13:02:41.019Z,36.588
2023-06-24T13:03:41.822Z,33.466
2023-06-24T13:04:41.450Z,32.809
2023-06-24T13:05:40.903Z,32.100
2023-06-24T13:06:41.513Z,29.985
2023-06-24T13:07:41.141Z,32.523
2023-06-24T13:08:41.624Z,32.037
2023-06-24T13:09:41.111Z,32.210
2023-06-24T13:10:41.872Z,32.691
2023-06-24T13:11:41.373Z,33.704
2023-06-24T13:12:41.792Z,34.330
2023-06-24T13:13:41.148Z,35.123
2023-06-24T13:14:41.617Z,36.313
2023-06-24T13:15:41.109Z,37.069
2023-06-24T13:16:41.512Z,36.506
2023-06-24T13:17:41.065Z,36.069
2023-06-24T13:18:41.659Z,36.479
2023-06-24T13:19:41.193Z,37.261
2023-06-24T13:20:41.584Z,35.939
2023-06-24T13:21:41.377Z,34.511
2023-06-24T13:22:41.766Z,33.870
2023-06-24T13:24:41.698Z,34.490
2023-06-24T13:25:41.185Z,34.372
2023-06-24T13:26:41.805Z,34.425
2023-06-24T13:27:44.167Z,33.952
2023-06-24T13:29:40.889Z,35.411
2023-06-24T13:30:41.887Z,35.705
2023-06-24T13:31:41.714Z,36.369
2023-06-24T13:32:41.414Z,36.067
2023-06-24T13:35:40.894Z,33.847
2023-06-24T13:36:41.467Z,33.975
2023-06-24T13:37:41.873Z,31.652
2023-06-24T13:38:41.425Z,32.699
2023-06-24T13:39:41.838Z,32.312
2023-06-24T13:40:41.360Z,32.342
2023-06-24T13:41:41.982Z,31.417
2023-06-24T13:42:41.389Z,30.955
2023-06-24T13:43:41.835Z,30.706
2023-06-24T13:44:41.297Z,29.609
2023-06-24T13:45:41.691Z,29.170
2023-06-24T13:46:41.345Z,29.130
2023-06-24T13:47:41.007Z,30.145
2023-06-24T13:48:41.640Z,29.775
2023-06-24T13:49:41.000Z,30.269
2023-06-24T13:50:42.327Z,30.028
2023-06-24T13:51:41.813Z,28.842